sensor_id;sensor_type;location;lat;lon;timestamp;temperature;humidity
71668;DHT22;59504;54.806;9.640;2023-12-20T00:01:30;5.20;85.00
71668;DHT22;59504;54.806;9.640;2023-12-20T00:03:57;5.20;84.90
71668;DHT22;59504;54.806;9.640;2023-12-20T00:06:23;5.20;84.80
71668;DHT22;59504;54.806;9.640;2023-12-20T00:09:12;5.30;84.90
71668;DHT22;59504;54.806;9.640;2023-12-20T00:11:35;5.30;84.90
71668;DHT22;59504;54.806;9.640;2023-12-20T00:16:31;5.30;85.10
71668;DHT22;59504;54.806;9.640;2023-12-20T00:18:54;5.40;85.20
71668;DHT22;59504;54.806;9.640;2023-12-20T00:21:34;5.40;85.20
71668;DHT22;59504;54.806;9.640;2023-12-20T00:24:12;5.50;85.20
71668;DHT22;59504;54.806;9.640;2023-12-20T00:26:35;5.40;85.10
71668;DHT22;59504;54.806;9.640;2023-12-20T00:29:11;5.50;85.20
71668;DHT22;59504;54.806;9.640;2023-12-20T00:31:27;5.50;85.10
71668;DHT22;59504;54.806;9.640;2023-12-20T00:34:03;5.50;85.00
71668;DHT22;59504;54.806;9.640;2023-12-20T00:36:30;5.50;85.00
71668;DHT22;59504;54.806;9.640;2023-12-20T00:38:54;5.40;84.80
71668;DHT22;59504;54.806;9.640;2023-12-20T00:41:17;5.50;85.00
71668;DHT22;59504;54.806;9.640;2023-12-20T00:43:47;5.50;84.90
71668;DHT22;59504;54.806;9.640;2023-12-20T00:46:16;5.60;85.00
71668;DHT22;59504;54.806;9.640;2023-12-20T00:48:39;5.50;84.90
71668;DHT22;59504;54.806;9.640;2023-12-20T00:51:09;5.60;85.10
71668;DHT22;59504;54.806;9.640;2023-12-20T00:53:33;5.50;85.00
71668;DHT22;59504;54.806;9.640;2023-12-20T00:55:36;5.60;84.80
71668;DHT22;59504;54.806;9.640;2023-12-20T00:58:02;5.50;84.80
71668;DHT22;59504;54.806;9.640;2023-12-20T01:00:23;5.60;84.80
71668;DHT22;59504;54.806;9.640;2023-12-20T01:02:43;5.60;84.90
71668;DHT22;59504;54.806;9.640;2023-12-20T01:05:14;5.60;84.90
71668;DHT22;59504;54.806;9.640;2023-12-20T01:07:46;5.60;84.90
71668;DHT22;59504;54.806;9.640;2023-12-20T01:10:10;5.60;84.80
71668;DHT22;59504;54.806;9.640;2023-12-20T01:12:36;5.60;84.80
71668;DHT22;59504;54.806;9.640;2023-12-20T01:14:59;5.70;84.80
71668;DHT22;59504;54.806;9.640;2023-12-20T01:17:20;5.60;84.70
71668;DHT22;59504;54.806;9.640;2023-12-20T01:19:55;5.60;84.80
71668;DHT22;59504;54.806;9.640;2023-12-20T01:22:21;5.60;84.60
71668;DHT22;59504;54.806;9.640;2023-12-20T01:24:54;5.70;84.80
71668;DHT22;59504;54.806;9.640;2023-12-20T01:27:05;5.70;84.60
71668;DHT22;59504;54.806;9.640;2023-12-20T01:29:18;5.60;84.60
71668;DHT22;59504;54.806;9.640;2023-12-20T01:31:24;5.70;84.60
71668;DHT22;59504;54.806;9.640;2023-12-20T01:33:36;5.80;84.70
71668;DHT22;59504;54.806;9.640;2023-12-20T01:35:57;5.70;84.50
71668;DHT22;59504;54.806;9.640;2023-12-20T01:38:23;5.70;84.50
71668;DHT22;59504;54.806;9.640;2023-12-20T01:40:49;5.70;84.50
71668;DHT22;59504;54.806;9.640;2023-12-20T01:43:10;5.80;85.30
71668;DHT22;59504;54.806;9.640;2023-12-20T01:45:35;5.80;84.50
71668;DHT22;59504;54.806;9.640;2023-12-20T01:48:03;5.70;84.20
71668;DHT22;59504;54.806;9.640;2023-12-20T01:50:28;5.70;84.10
71668;DHT22;59504;54.806;9.640;2023-12-20T01:52:58;5.80;84.30
71668;DHT22;59504;54.806;9.640;2023-12-20T01:55:29;5.70;84.30
71668;DHT22;59504;54.806;9.640;2023-12-20T01:58:00;5.70;84.30
71668;DHT22;59504;54.806;9.640;2023-12-20T02:00:33;5.70;84.30
71668;DHT22;59504;54.806;9.640;2023-12-20T02:03:14;5.80;84.30
71668;DHT22;59504;54.806;9.640;2023-12-20T02:05:35;5.70;84.30
71668;DHT22;59504;54.806;9.640;2023-12-20T02:07:59;5.70;84.20
71668;DHT22;59504;54.806;9.640;2023-12-20T02:10:23;5.70;84.20
71668;DHT22;59504;54.806;9.640;2023-12-20T02:12:24;5.70;84.10
71668;DHT22;59504;54.806;9.640;2023-12-20T02:14:24;5.60;84.20
71668;DHT22;59504;54.806;9.640;2023-12-20T02:16:30;5.70;84.20
71668;DHT22;59504;54.806;9.640;2023-12-20T02:18:36;5.60;84.10
71668;DHT22;59504;54.806;9.640;2023-12-20T02:20:36;5.70;84.20
71668;DHT22;59504;54.806;9.640;2023-12-20T02:22:37;5.70;84.20
71668;DHT22;59504;54.806;9.640;2023-12-20T02:24:38;5.70;84.20
71668;DHT22;59504;54.806;9.640;2023-12-20T02:26:38;5.70;84.10
71668;DHT22;59504;54.806;9.640;2023-12-20T02:28:39;5.70;84.10
71668;DHT22;59504;54.806;9.640;2023-12-20T02:30:39;5.80;84.30
71668;DHT22;59504;54.806;9.640;2023-12-20T02:32:40;5.70;84.10
71668;DHT22;59504;54.806;9.640;2023-12-20T02:34:43;5.70;84.10
71668;DHT22;59504;54.806;9.640;2023-12-20T02:36:49;5.70;84.10
71668;DHT22;59504;54.806;9.640;2023-12-20T02:38:59;5.70;84.20
71668;DHT22;59504;54.806;9.640;2023-12-20T02:41:07;5.70;84.10
71668;DHT22;59504;54.806;9.640;2023-12-20T02:43:16;5.70;84.10
71668;DHT22;59504;54.806;9.640;2023-12-20T02:45:29;5.80;84.40
71668;DHT22;59504;54.806;9.640;2023-12-20T02:47:45;5.80;84.40
71668;DHT22;59504;54.806;9.640;2023-12-20T02:52:19;5.70;84.20
71668;DHT22;59504;54.806;9.640;2023-12-20T02:54:28;5.70;84.30
71668;DHT22;59504;54.806;9.640;2023-12-20T02:56:29;5.80;84.20
71668;DHT22;59504;54.806;9.640;2023-12-20T02:58:30;5.70;84.40
71668;DHT22;59504;54.806;9.640;2023-12-20T03:00:36;5.80;84.50
71668;DHT22;59504;54.806;9.640;2023-12-20T03:02:36;5.80;84.50
71668;DHT22;59504;54.806;9.640;2023-12-20T03:04:41;5.80;84.50
71668;DHT22;59504;54.806;9.640;2023-12-20T03:06:45;5.70;84.40
71668;DHT22;59504;54.806;9.640;2023-12-20T03:08:50;5.70;84.30
71668;DHT22;59504;54.806;9.640;2023-12-20T03:10:51;5.80;84.40
71668;DHT22;59504;54.806;9.640;2023-12-20T03:12:54;5.80;84.30
71668;DHT22;59504;54.806;9.640;2023-12-20T03:14:55;5.80;84.40
71668;DHT22;59504;54.806;9.640;2023-12-20T03:16:55;5.80;84.20
71668;DHT22;59504;54.806;9.640;2023-12-20T03:18:59;5.70;84.20
71668;DHT22;59504;54.806;9.640;2023-12-20T03:21:07;5.80;84.40
71668;DHT22;59504;54.806;9.640;2023-12-20T03:23:08;5.80;84.30
71668;DHT22;59504;54.806;9.640;2023-12-20T03:25:12;5.90;84.40
71668;DHT22;59504;54.806;9.640;2023-12-20T03:27:12;5.90;84.40
71668;DHT22;59504;54.806;9.640;2023-12-20T03:29:13;5.80;84.50
71668;DHT22;59504;54.806;9.640;2023-12-20T03:31:24;5.80;84.50
71668;DHT22;59504;54.806;9.640;2023-12-20T03:33:25;5.80;84.50
71668;DHT22;59504;54.806;9.640;2023-12-20T03:35:27;5.90;84.60
71668;DHT22;59504;54.806;9.640;2023-12-20T03:37:27;5.90;84.60
71668;DHT22;59504;54.806;9.640;2023-12-20T03:39:28;5.90;84.60
71668;DHT22;59504;54.806;9.640;2023-12-20T03:41:28;5.90;84.60
71668;DHT22;59504;54.806;9.640;2023-12-20T03:43:29;5.90;84.50
71668;DHT22;59504;54.806;9.640;2023-12-20T03:45:29;5.90;84.50
71668;DHT22;59504;54.806;9.640;2023-12-20T03:47:36;5.90;84.50
71668;DHT22;59504;54.806;9.640;2023-12-20T03:49:49;5.90;84.50
71668;DHT22;59504;54.806;9.640;2023-12-20T03:51:54;5.90;84.50
71668;DHT22;59504;54.806;9.640;2023-12-20T03:54:00;5.80;84.50
71668;DHT22;59504;54.806;9.640;2023-12-20T03:56:02;5.90;84.50
71668;DHT22;59504;54.806;9.640;2023-12-20T03:58:03;5.90;84.60
71668;DHT22;59504;54.806;9.640;2023-12-20T04:00:24;5.90;84.60
71668;DHT22;59504;54.806;9.640;2023-12-20T04:02:24;6.00;84.60
71668;DHT22;59504;54.806;9.640;2023-12-20T04:04:47;6.00;84.60
71668;DHT22;59504;54.806;9.640;2023-12-20T04:07:11;6.00;84.60
71668;DHT22;59504;54.806;9.640;2023-12-20T04:09:31;6.00;84.50
71668;DHT22;59504;54.806;9.640;2023-12-20T04:11:51;6.00;84.30
71668;DHT22;59504;54.806;9.640;2023-12-20T04:13:58;6.00;84.30
71668;DHT22;59504;54.806;9.640;2023-12-20T04:16:19;6.00;84.30
71668;DHT22;59504;54.806;9.640;2023-12-20T04:18:39;6.00;84.30
71668;DHT22;59504;54.806;9.640;2023-12-20T04:21:00;6.00;84.30
71668;DHT22;59504;54.806;9.640;2023-12-20T04:23:28;6.00;84.30
71668;DHT22;59504;54.806;9.640;2023-12-20T04:25:48;6.10;84.40
71668;DHT22;59504;54.806;9.640;2023-12-20T04:28:12;6.00;84.40
71668;DHT22;59504;54.806;9.640;2023-12-20T04:30:33;6.00;84.40
71668;DHT22;59504;54.806;9.640;2023-12-20T04:32:56;6.00;84.40
71668;DHT22;59504;54.806;9.640;2023-12-20T04:35:20;6.00;84.40
71668;DHT22;59504;54.806;9.640;2023-12-20T04:37:41;6.00;84.40
71668;DHT22;59504;54.806;9.640;2023-12-20T04:40:10;6.00;84.30
71668;DHT22;59504;54.806;9.640;2023-12-20T04:42:31;6.00;84.20
71668;DHT22;59504;54.806;9.640;2023-12-20T04:44:52;6.00;84.20
71668;DHT22;59504;54.806;9.640;2023-12-20T04:47:13;6.10;84.20
71668;DHT22;59504;54.806;9.640;2023-12-20T04:49:35;6.10;84.20
71668;DHT22;59504;54.806;9.640;2023-12-20T04:51:56;6.10;84.20
71668;DHT22;59504;54.806;9.640;2023-12-20T04:54:17;6.10;84.20
71668;DHT22;59504;54.806;9.640;2023-12-20T04:56:37;6.10;84.00
71668;DHT22;59504;54.806;9.640;2023-12-20T04:58:50;6.10;83.60
71668;DHT22;59504;54.806;9.640;2023-12-20T05:01:10;6.00;83.50
71668;DHT22;59504;54.806;9.640;2023-12-20T05:03:32;6.00;82.90
71668;DHT22;59504;54.806;9.640;2023-12-20T05:05:53;6.00;82.60
71668;DHT22;59504;54.806;9.640;2023-12-20T05:08:14;6.00;83.00
71668;DHT22;59504;54.806;9.640;2023-12-20T05:10:34;6.00;83.20
71668;DHT22;59504;54.806;9.640;2023-12-20T05:12:56;6.10;83.20
71668;DHT22;59504;54.806;9.640;2023-12-20T05:15:17;6.10;83.20
71668;DHT22;59504;54.806;9.640;2023-12-20T05:17:38;6.10;83.10
71668;DHT22;59504;54.806;9.640;2023-12-20T05:20:05;6.10;83.20
71668;DHT22;59504;54.806;9.640;2023-12-20T05:22:25;6.10;83.30
71668;DHT22;59504;54.806;9.640;2023-12-20T05:25:06;6.10;83.30
71668;DHT22;59504;54.806;9.640;2023-12-20T05:27:26;6.10;83.40
71668;DHT22;59504;54.806;9.640;2023-12-20T05:29:30;6.10;83.30
71668;DHT22;59504;54.806;9.640;2023-12-20T05:31:31;6.10;83.40
71668;DHT22;59504;54.806;9.640;2023-12-20T05:33:32;6.10;83.40
71668;DHT22;59504;54.806;9.640;2023-12-20T05:35:32;6.10;83.40
71668;DHT22;59504;54.806;9.640;2023-12-20T05:37:36;6.10;83.30
71668;DHT22;59504;54.806;9.640;2023-12-20T05:39:37;6.10;83.30
71668;DHT22;59504;54.806;9.640;2023-12-20T05:41:38;6.10;84.10
71668;DHT22;59504;54.806;9.640;2023-12-20T05:43:39;6.10;83.50
71668;DHT22;59504;54.806;9.640;2023-12-20T05:45:39;6.20;83.60
71668;DHT22;59504;54.806;9.640;2023-12-20T05:47:40;6.10;83.50
71668;DHT22;59504;54.806;9.640;2023-12-20T05:49:40;6.20;83.60
71668;DHT22;59504;54.806;9.640;2023-12-20T05:51:41;6.10;83.50
71668;DHT22;59504;54.806;9.640;2023-12-20T05:53:42;6.20;83.50
71668;DHT22;59504;54.806;9.640;2023-12-20T05:55:42;6.10;83.20
71668;DHT22;59504;54.806;9.640;2023-12-20T05:57:43;6.00;83.80
71668;DHT22;59504;54.806;9.640;2023-12-20T05:59:44;6.00;82.70
71668;DHT22;59504;54.806;9.640;2023-12-20T06:01:44;6.00;82.50
71668;DHT22;59504;54.806;9.640;2023-12-20T06:03:45;6.10;82.50
71668;DHT22;59504;54.806;9.640;2023-12-20T06:05:53;6.10;82.40
71668;DHT22;59504;54.806;9.640;2023-12-20T06:07:56;6.00;82.10
71668;DHT22;59504;54.806;9.640;2023-12-20T06:10:21;6.00;81.60
71668;DHT22;59504;54.806;9.640;2023-12-20T06:12:44;6.00;81.70
71668;DHT22;59504;54.806;9.640;2023-12-20T06:15:07;6.00;81.80
71668;DHT22;59504;54.806;9.640;2023-12-20T06:17:35;6.00;81.80
71668;DHT22;59504;54.806;9.640;2023-12-20T06:19:38;6.00;81.80
71668;DHT22;59504;54.806;9.640;2023-12-20T06:21:58;6.00;81.90
71668;DHT22;59504;54.806;9.640;2023-12-20T06:24:22;6.00;81.90
71668;DHT22;59504;54.806;9.640;2023-12-20T06:26:43;6.00;81.90
71668;DHT22;59504;54.806;9.640;2023-12-20T06:29:03;5.90;81.90
71668;DHT22;59504;54.806;9.640;2023-12-20T06:31:24;6.00;82.00
71668;DHT22;59504;54.806;9.640;2023-12-20T06:33:45;6.00;82.00
71668;DHT22;59504;54.806;9.640;2023-12-20T06:36:05;6.00;82.10
71668;DHT22;59504;54.806;9.640;2023-12-20T06:38:26;5.90;82.00
71668;DHT22;59504;54.806;9.640;2023-12-20T06:40:46;6.00;82.10
71668;DHT22;59504;54.806;9.640;2023-12-20T06:43:08;5.90;82.10
71668;DHT22;59504;54.806;9.640;2023-12-20T06:45:29;6.00;82.20
71668;DHT22;59504;54.806;9.640;2023-12-20T06:47:50;5.90;82.10
71668;DHT22;59504;54.806;9.640;2023-12-20T06:50:10;6.00;82.20
71668;DHT22;59504;54.806;9.640;2023-12-20T06:52:31;5.90;82.10
71668;DHT22;59504;54.806;9.640;2023-12-20T06:54:54;6.00;82.20
71668;DHT22;59504;54.806;9.640;2023-12-20T06:57:15;6.00;82.10
71668;DHT22;59504;54.806;9.640;2023-12-20T06:59:15;6.00;82.10
71668;DHT22;59504;54.806;9.640;2023-12-20T07:01:16;5.90;81.90
71668;DHT22;59504;54.806;9.640;2023-12-20T07:03:17;5.90;81.70
71668;DHT22;59504;54.806;9.640;2023-12-20T07:05:18;5.90;81.90
71668;DHT22;59504;54.806;9.640;2023-12-20T07:07:20;5.90;81.90
71668;DHT22;59504;54.806;9.640;2023-12-20T07:09:20;5.90;82.00
71668;DHT22;59504;54.806;9.640;2023-12-20T07:11:24;5.90;82.10
71668;DHT22;59504;54.806;9.640;2023-12-20T07:13:25;5.90;82.30
71668;DHT22;59504;54.806;9.640;2023-12-20T07:15:25;5.90;82.70
71668;DHT22;59504;54.806;9.640;2023-12-20T07:17:27;5.90;82.80
71668;DHT22;59504;54.806;9.640;2023-12-20T07:19:30;5.80;82.70
71668;DHT22;59504;54.806;9.640;2023-12-20T07:21:36;6.00;82.80
71668;DHT22;59504;54.806;9.640;2023-12-20T07:23:41;5.90;82.70
71668;DHT22;59504;54.806;9.640;2023-12-20T07:25:42;5.90;82.60
71668;DHT22;59504;54.806;9.640;2023-12-20T07:27:43;5.90;82.60
71668;DHT22;59504;54.806;9.640;2023-12-20T07:29:43;6.10;82.70
71668;DHT22;59504;54.806;9.640;2023-12-20T07:31:44;5.90;82.40
71668;DHT22;59504;54.806;9.640;2023-12-20T07:33:48;5.90;82.60
71668;DHT22;59504;54.806;9.640;2023-12-20T07:36:09;5.90;82.60
71668;DHT22;59504;54.806;9.640;2023-12-20T07:38:35;5.80;82.50
71668;DHT22;59504;54.806;9.640;2023-12-20T07:40:58;6.00;82.70
71668;DHT22;59504;54.806;9.640;2023-12-20T07:43:21;5.90;82.60
71668;DHT22;59504;54.806;9.640;2023-12-20T07:45:44;6.00;82.80
71668;DHT22;59504;54.806;9.640;2023-12-20T07:48:08;5.90;82.80
71668;DHT22;59504;54.806;9.640;2023-12-20T07:50:31;5.90;82.80
71668;DHT22;59504;54.806;9.640;2023-12-20T07:52:55;6.00;82.90
71668;DHT22;59504;54.806;9.640;2023-12-20T07:55:16;5.90;83.10
71668;DHT22;59504;54.806;9.640;2023-12-20T07:57:39;5.90;83.90
71668;DHT22;59504;54.806;9.640;2023-12-20T08:00:00;5.80;83.10
71668;DHT22;59504;54.806;9.640;2023-12-20T08:02:21;5.80;82.40
71668;DHT22;59504;54.806;9.640;2023-12-20T08:04:41;5.80;81.90
71668;DHT22;59504;54.806;9.640;2023-12-20T08:07:02;5.70;81.30
71668;DHT22;59504;54.806;9.640;2023-12-20T08:09:02;5.70;81.10
71668;DHT22;59504;54.806;9.640;2023-12-20T08:11:03;5.60;81.00
71668;DHT22;59504;54.806;9.640;2023-12-20T08:13:03;5.60;81.10
71668;DHT22;59504;54.806;9.640;2023-12-20T08:15:04;5.60;81.20
71668;DHT22;59504;54.806;9.640;2023-12-20T08:17:05;5.50;81.20
71668;DHT22;59504;54.806;9.640;2023-12-20T08:19:06;5.40;81.10
71668;DHT22;59504;54.806;9.640;2023-12-20T08:21:12;5.40;81.20
71668;DHT22;59504;54.806;9.640;2023-12-20T08:23:13;5.40;81.40
71668;DHT22;59504;54.806;9.640;2023-12-20T08:25:13;5.30;81.40
71668;DHT22;59504;54.806;9.640;2023-12-20T08:27:42;5.30;81.40
71668;DHT22;59504;54.806;9.640;2023-12-20T08:30:02;5.30;81.40
71668;DHT22;59504;54.806;9.640;2023-12-20T08:32:03;5.30;81.50
71668;DHT22;59504;54.806;9.640;2023-12-20T08:34:25;5.20;81.60
71668;DHT22;59504;54.806;9.640;2023-12-20T08:36:45;5.20;81.70
71668;DHT22;59504;54.806;9.640;2023-12-20T08:39:08;5.10;81.70
71668;DHT22;59504;54.806;9.640;2023-12-20T08:41:29;5.20;81.90
71668;DHT22;59504;54.806;9.640;2023-12-20T08:43:49;5.10;81.90
71668;DHT22;59504;54.806;9.640;2023-12-20T08:46:11;5.10;81.90
71668;DHT22;59504;54.806;9.640;2023-12-20T08:48:32;5.10;81.90
71668;DHT22;59504;54.806;9.640;2023-12-20T08:50:53;5.10;81.90
71668;DHT22;59504;54.806;9.640;2023-12-20T08:53:13;5.00;81.60
71668;DHT22;59504;54.806;9.640;2023-12-20T08:55:35;5.00;81.50
71668;DHT22;59504;54.806;9.640;2023-12-20T08:57:56;4.90;81.60
71668;DHT22;59504;54.806;9.640;2023-12-20T09:00:17;4.80;81.50
71668;DHT22;59504;54.806;9.640;2023-12-20T09:02:38;4.80;81.60
71668;DHT22;59504;54.806;9.640;2023-12-20T09:04:59;4.80;81.60
71668;DHT22;59504;54.806;9.640;2023-12-20T09:07:23;4.70;81.60
71668;DHT22;59504;54.806;9.640;2023-12-20T09:09:44;4.70;81.80
71668;DHT22;59504;54.806;9.640;2023-12-20T09:12:05;4.70;81.80
71668;DHT22;59504;54.806;9.640;2023-12-20T09:14:25;4.60;81.80
71668;DHT22;59504;54.806;9.640;2023-12-20T09:16:46;4.70;82.30
71668;DHT22;59504;54.806;9.640;2023-12-20T09:19:07;4.80;82.40
71668;DHT22;59504;54.806;9.640;2023-12-20T09:21:27;4.60;82.40
71668;DHT22;59504;54.806;9.640;2023-12-20T09:23:48;4.70;82.50
71668;DHT22;59504;54.806;9.640;2023-12-20T09:26:08;4.60;82.60
71668;DHT22;59504;54.806;9.640;2023-12-20T09:28:29;4.70;82.80
71668;DHT22;59504;54.806;9.640;2023-12-20T09:30:50;4.80;83.10
71668;DHT22;59504;54.806;9.640;2023-12-20T09:32:50;4.70;83.30
71668;DHT22;59504;54.806;9.640;2023-12-20T09:34:51;4.80;83.20
71668;DHT22;59504;54.806;9.640;2023-12-20T09:36:52;4.80;83.30
71668;DHT22;59504;54.806;9.640;2023-12-20T09:38:52;4.80;83.70
71668;DHT22;59504;54.806;9.640;2023-12-20T09:41:13;4.80;84.00
71668;DHT22;59504;54.806;9.640;2023-12-20T09:43:35;4.90;84.10
71668;DHT22;59504;54.806;9.640;2023-12-20T09:45:56;4.80;84.00
71668;DHT22;59504;54.806;9.640;2023-12-20T09:48:20;5.00;84.20
71668;DHT22;59504;54.806;9.640;2023-12-20T09:50:46;4.90;84.10
71668;DHT22;59504;54.806;9.640;2023-12-20T09:53:10;4.90;84.00
71668;DHT22;59504;54.806;9.640;2023-12-20T09:55:32;4.90;83.80
71668;DHT22;59504;54.806;9.640;2023-12-20T09:57:55;5.00;83.80
71668;DHT22;59504;54.806;9.640;2023-12-20T10:00:16;4.90;83.50
71668;DHT22;59504;54.806;9.640;2023-12-20T10:02:58;4.90;83.20
71668;DHT22;59504;54.806;9.640;2023-12-20T10:05:19;4.90;83.20
71668;DHT22;59504;54.806;9.640;2023-12-20T10:07:45;5.00;83.20
71668;DHT22;59504;54.806;9.640;2023-12-20T10:10:06;5.00;83.40
71668;DHT22;59504;54.806;9.640;2023-12-20T10:12:29;5.00;82.80
71668;DHT22;59504;54.806;9.640;2023-12-20T10:14:52;5.00;82.60
71668;DHT22;59504;54.806;9.640;2023-12-20T10:17:15;5.10;82.30
71668;DHT22;59504;54.806;9.640;2023-12-20T10:19:36;5.00;82.10
71668;DHT22;59504;54.806;9.640;2023-12-20T10:22:04;5.10;81.60
71668;DHT22;59504;54.806;9.640;2023-12-20T10:24:25;5.00;81.20
71668;DHT22;59504;54.806;9.640;2023-12-20T10:26:48;5.00;81.10
71668;DHT22;59504;54.806;9.640;2023-12-20T10:29:10;5.00;80.70
71668;DHT22;59504;54.806;9.640;2023-12-20T10:31:26;5.00;80.80
71668;DHT22;59504;54.806;9.640;2023-12-20T10:33:30;5.00;80.60
71668;DHT22;59504;54.806;9.640;2023-12-20T10:35:35;5.00;80.20
71668;DHT22;59504;54.806;9.640;2023-12-20T10:37:43;5.10;79.70
71668;DHT22;59504;54.806;9.640;2023-12-20T10:39:50;5.00;79.60
71668;DHT22;59504;54.806;9.640;2023-12-20T10:41:52;5.00;79.20
71668;DHT22;59504;54.806;9.640;2023-12-20T10:43:52;5.00;78.90
71668;DHT22;59504;54.806;9.640;2023-12-20T10:45:59;5.10;79.00
71668;DHT22;59504;54.806;9.640;2023-12-20T10:48:19;5.00;78.80
71668;DHT22;59504;54.806;9.640;2023-12-20T10:50:41;5.00;78.50
71668;DHT22;59504;54.806;9.640;2023-12-20T10:53:02;5.10;78.50
71668;DHT22;59504;54.806;9.640;2023-12-20T10:55:23;5.00;78.50
71668;DHT22;59504;54.806;9.640;2023-12-20T10:57:43;5.00;78.40
71668;DHT22;59504;54.806;9.640;2023-12-20T11:00:06;5.00;78.20
71668;DHT22;59504;54.806;9.640;2023-12-20T11:02:30;5.00;78.40
71668;DHT22;59504;54.806;9.640;2023-12-20T11:05:06;5.10;78.40
71668;DHT22;59504;54.806;9.640;2023-12-20T11:07:37;5.10;78.40
71668;DHT22;59504;54.806;9.640;2023-12-20T11:09:43;5.10;78.40
71668;DHT22;59504;54.806;9.640;2023-12-20T11:14:05;5.10;78.50
71668;DHT22;59504;54.806;9.640;2023-12-20T11:16:26;5.20;78.60
71668;DHT22;59504;54.806;9.640;2023-12-20T11:18:47;5.20;78.30
71668;DHT22;59504;54.806;9.640;2023-12-20T11:21:10;5.30;78.60
71668;DHT22;59504;54.806;9.640;2023-12-20T11:23:34;5.20;78.50
71668;DHT22;59504;54.806;9.640;2023-12-20T11:25:56;5.20;78.50
71668;DHT22;59504;54.806;9.640;2023-12-20T11:28:22;5.30;78.50
71668;DHT22;59504;54.806;9.640;2023-12-20T11:30:47;5.30;78.60
71668;DHT22;59504;54.806;9.640;2023-12-20T11:33:08;5.30;78.60
71668;DHT22;59504;54.806;9.640;2023-12-20T11:35:29;5.30;78.60
71668;DHT22;59504;54.806;9.640;2023-12-20T11:37:49;5.40;78.40
71668;DHT22;59504;54.806;9.640;2023-12-20T11:40:12;5.30;78.10
71668;DHT22;59504;54.806;9.640;2023-12-20T11:42:33;5.40;78.50
71668;DHT22;59504;54.806;9.640;2023-12-20T11:44:55;5.40;78.30
71668;DHT22;59504;54.806;9.640;2023-12-20T11:47:16;5.40;78.20
71668;DHT22;59504;54.806;9.640;2023-12-20T11:49:22;5.40;77.80
71668;DHT22;59504;54.806;9.640;2023-12-20T11:51:23;5.40;77.80
71668;DHT22;59504;54.806;9.640;2023-12-20T11:53:43;5.50;77.90
71668;DHT22;59504;54.806;9.640;2023-12-20T11:55:56;5.50;77.80
71668;DHT22;59504;54.806;9.640;2023-12-20T11:58:17;5.60;78.00
71668;DHT22;59504;54.806;9.640;2023-12-20T12:00:37;5.60;77.90
71668;DHT22;59504;54.806;9.640;2023-12-20T12:02:58;5.70;77.80
71668;DHT22;59504;54.806;9.640;2023-12-20T12:05:18;5.80;77.80
71668;DHT22;59504;54.806;9.640;2023-12-20T12:07:40;5.80;77.60
71668;DHT22;59504;54.806;9.640;2023-12-20T12:10:00;5.80;77.30
71668;DHT22;59504;54.806;9.640;2023-12-20T12:12:21;5.80;76.80
71668;DHT22;59504;54.806;9.640;2023-12-20T12:14:42;5.90;76.70
71668;DHT22;59504;54.806;9.640;2023-12-20T12:17:03;5.80;76.60
71668;DHT22;59504;54.806;9.640;2023-12-20T12:19:24;5.80;76.30
71668;DHT22;59504;54.806;9.640;2023-12-20T12:21:44;5.80;75.80
71668;DHT22;59504;54.806;9.640;2023-12-20T12:24:08;5.90;75.10
71668;DHT22;59504;54.806;9.640;2023-12-20T12:26:11;5.80;74.60
71668;DHT22;59504;54.806;9.640;2023-12-20T12:28:31;5.80;74.10
71668;DHT22;59504;54.806;9.640;2023-12-20T12:30:56;5.80;74.40
71668;DHT22;59504;54.806;9.640;2023-12-20T12:33:18;5.80;73.90
71668;DHT22;59504;54.806;9.640;2023-12-20T12:35:38;5.90;73.80
71668;DHT22;59504;54.806;9.640;2023-12-20T12:37:59;5.80;74.00
71668;DHT22;59504;54.806;9.640;2023-12-20T12:40:20;5.80;73.80
71668;DHT22;59504;54.806;9.640;2023-12-20T12:42:42;5.70;73.40
71668;DHT22;59504;54.806;9.640;2023-12-20T12:45:03;5.70;73.30
71668;DHT22;59504;54.806;9.640;2023-12-20T12:47:24;5.70;73.50
71668;DHT22;59504;54.806;9.640;2023-12-20T12:49:27;5.70;73.20
71668;DHT22;59504;54.806;9.640;2023-12-20T12:51:30;5.70;72.50
71668;DHT22;59504;54.806;9.640;2023-12-20T12:53:34;5.70;72.20
71668;DHT22;59504;54.806;9.640;2023-12-20T12:55:52;5.70;72.50
71668;DHT22;59504;54.806;9.640;2023-12-20T12:58:02;5.80;72.60
71668;DHT22;59504;54.806;9.640;2023-12-20T13:00:20;5.70;72.00
71668;DHT22;59504;54.806;9.640;2023-12-20T13:02:29;5.80;71.90
71668;DHT22;59504;54.806;9.640;2023-12-20T13:04:38;5.60;71.60
71668;DHT22;59504;54.806;9.640;2023-12-20T13:06:58;5.70;71.70
71668;DHT22;59504;54.806;9.640;2023-12-20T13:12:21;5.70;72.50
71668;DHT22;59504;54.806;9.640;2023-12-20T13:14:52;5.70;72.90
71668;DHT22;59504;54.806;9.640;2023-12-20T13:17:14;5.70;72.80
71668;DHT22;59504;54.806;9.640;2023-12-20T13:19:40;5.70;73.10
71668;DHT22;59504;54.806;9.640;2023-12-20T13:25:05;5.70;73.50
71668;DHT22;59504;54.806;9.640;2023-12-20T13:27:35;5.60;73.80
71668;DHT22;59504;54.806;9.640;2023-12-20T13:30:04;5.70;73.70
71668;DHT22;59504;54.806;9.640;2023-12-20T13:32:30;5.60;73.70
71668;DHT22;59504;54.806;9.640;2023-12-20T13:34:31;5.60;73.50
71668;DHT22;59504;54.806;9.640;2023-12-20T13:36:36;5.60;73.30
71668;DHT22;59504;54.806;9.640;2023-12-20T13:38:37;5.70;73.50
71668;DHT22;59504;54.806;9.640;2023-12-20T13:40:38;5.60;73.40
71668;DHT22;59504;54.806;9.640;2023-12-20T13:45:29;5.60;73.60
71668;DHT22;59504;54.806;9.640;2023-12-20T13:47:49;5.60;73.50
71668;DHT22;59504;54.806;9.640;2023-12-20T13:50:10;5.60;73.70
71668;DHT22;59504;54.806;9.640;2023-12-20T13:52:30;5.60;73.70
71668;DHT22;59504;54.806;9.640;2023-12-20T13:55:09;5.70;73.90
71668;DHT22;59504;54.806;9.640;2023-12-20T13:57:29;5.60;73.90
71668;DHT22;59504;54.806;9.640;2023-12-20T13:59:56;5.60;74.00
71668;DHT22;59504;54.806;9.640;2023-12-20T14:02:20;5.60;74.10
71668;DHT22;59504;54.806;9.640;2023-12-20T14:04:26;5.60;74.30
71668;DHT22;59504;54.806;9.640;2023-12-20T14:06:32;5.60;74.40
71668;DHT22;59504;54.806;9.640;2023-12-20T14:08:33;5.70;74.50
71668;DHT22;59504;54.806;9.640;2023-12-20T14:10:36;5.70;74.70
71668;DHT22;59504;54.806;9.640;2023-12-20T14:12:42;5.70;74.90
71668;DHT22;59504;54.806;9.640;2023-12-20T14:14:58;5.50;74.70
71668;DHT22;59504;54.806;9.640;2023-12-20T14:17:08;5.50;75.20
71668;DHT22;59504;54.806;9.640;2023-12-20T14:19:15;5.50;75.60
71668;DHT22;59504;54.806;9.640;2023-12-20T14:21:37;5.40;75.50
71668;DHT22;59504;54.806;9.640;2023-12-20T14:24:00;5.40;75.60
71668;DHT22;59504;54.806;9.640;2023-12-20T14:26:24;5.40;75.50
71668;DHT22;59504;54.806;9.640;2023-12-20T14:28:45;5.30;75.40
71668;DHT22;59504;54.806;9.640;2023-12-20T14:31:05;5.20;75.30
71668;DHT22;59504;54.806;9.640;2023-12-20T14:33:37;5.10;75.20
71668;DHT22;59504;54.806;9.640;2023-12-20T14:36:04;5.10;75.20
71668;DHT22;59504;54.806;9.640;2023-12-20T14:38:28;5.00;75.30
71668;DHT22;59504;54.806;9.640;2023-12-20T14:40:51;5.00;75.50
71668;DHT22;59504;54.806;9.640;2023-12-20T14:43:14;4.90;75.60
71668;DHT22;59504;54.806;9.640;2023-12-20T14:45:37;4.90;75.80
71668;DHT22;59504;54.806;9.640;2023-12-20T14:47:57;4.90;75.90